Latrobe, PA (15650)

2:30 PM EST on February 06, 2016 (GMT -0500)
Joe's Place | | Change Station
CLOSE
Current Station
Personal Weather Station
Location: Latrobe, PA
Elevation: 1099 ft
Nearby Weather Stations

Elev 1099 ft 40.31 °N, 79.37 °W | Updated 0 second ago

Scattered Clouds
Scattered Clouds
44.5 °F
Feels Like 39 °F
N
10.0
Wind Variable Wind from SSW
Gusts 11.0 mph

Today
High -- | Low -- °F
--% Chance of Precip.
Yesterday
High -- | Low -- °F
Precip. -- in
Pressure 30.23 in
Visibility 10.0 miles
Clouds Scattered Clouds 5000 ft
Windchill 39 °F
Dew Point 24 °F
Humidity 44%
Rainfall 0.00 in
Snow Depth Not available.
7:22 AM 5:41 PM
Waning Crescent, 4% visible
METAR KLBE 061845Z 22016G20KT 10SM SCT050 06/M07 A3023
Pressure 30.23 in
Visibility 10.0 miles
Clouds Scattered Clouds 5000 ft
Windchill 39 °F
Dew Point 24 °F
Humidity 44%
Rainfall 0.00 in
Snow Depth Not available.
7:22 AM 5:41 PM
Waning Crescent, 4% visible
METAR KLBE 061845Z 22016G20KT 10SM SCT050 06/M07 A3023

10-Day Weather Forecast

Almanac

Astronomy

Feb. 06, 2016 Rise Set
Actual Time
Civil Twilight
Nautical Twilight
Astronomical Twilight
Moon
Length of Visible Light
Length of Day
Tomorrow will be .
, % of the Moon is Illuminated

Today's Extremes

State Highs State Lows

Community

WunderPhotos

Upload Photos

1,891,036 photos uploaded!

WunderBlog® & News

Nearby

Air Quality

  Air Quality AQ Index Pollutant
Not available.

Snow Depth

Station Depth Elevation

Earthquake Activity

City Distance Mag. Time & Date
Minimum magnitude displayed is 2.5.

Coastal Water Temperatures

Place Temperature

Stations

Nearby Weather Stations

Station Location Temp. Windchill Dew Point Humidity Wind Precip. Elev Updated Type
                   

Watches & Warnings

There are currently no watches in effect.